الصفحة الرئيسية
METAR-TAF:

METAR-TAF

مطار :

بونير, جزر الأنتيل الهولندية

دائرة عرض: 12-09N, خط طول: 068-17W, ارتفاع: 6 متر

مراقبة الطقس الحالي

تاريخ ووقت الإصدار 49 دقيقة قبل الساعة 14:55UTC
ريح 17 عقدة من الشرق, الاتجاه يتراوح بين الشمال الشرقي و الشرق/الجنوب الشرقي
درجة الحرارة 30°درجة مئوية
الرطوبة 62%
ضغط 1017 hPa
الرؤية 10 كم أو أكثر
غيوم مفككة على ارتفاع 2600 قدم
غيوم مفككة على ارتفاع 2900 قدم
غيوم مفككة على ارتفاع 3300 قدم

METAR: TNCB 011455Z 09017KT 050V120 9999 BKN026 BKN029 BKN033 30/22 Q1017

زمن: 11:44 (15:44 UTC)

توقعات

تاريخ ووقت الإصدار 4ساعات و 55 دقيقة قبل الساعة 10:49UTC
التوقعات صالحة من01 الساعة 12 UTC إلى 02 الساعة 18 UTC
ريح 14 عقدة من الشرق/الشمال الشرقي
الرؤية 10 كم أو أكثر
غيوم متفرقة على ارتفاع 2200 قدم

TAF: TNCB 011049Z 0112/0218 07014KT 9999 SCT022

أرصاد الطقس والتوقعات من أكثر من 4000 مطار (تقارير الطقس للمطار METAR والتنبؤ بالطقس بالمطارTAF).

المحطات المتاحة هي النقط الصفراء والحمراء على الخريطة.

حرك المؤشر فوق النقطة لمعرفة اسم المحطة.

ثم انقر لمعرفة أرصاد وتوقعات الطقس.

لتغيير الخارطة: اضغط على الأزرار الخضراء مع رمز الصليب الأسود للتكبير. على الزر الأخضر مع شرطة للتصغير، أو على الأسهم الخضراء للخرائط المجاورة.


METAR-TAF: